July 4, 2022

Time Code Weather Temp. Visibility Ceiling Wind METAR/SPECI
5:30 pm
V
90 °F 6¼ mi+ - 210° 210° 10 kt METAR LESU 041530Z 21010KT 180V240 9999 FEW060 FEW070TCU 32/12 Q1018
5:00 pm
V
90 °F 6¼ mi+ - 210° 210° 10 kt METAR LESU 041500Z 21010KT 190V260 9999 FEW060 FEW070TCU 32/12 Q1018
4:30 pm
V
91 °F 6¼ mi+ - 200° 200° 11 kt METAR LESU 041430Z 20011KT 170V230 9999 FEW060 FEW070TCU 33/12 Q1018
4:00 pm
V
91 °F 6¼ mi+ - 200° 200° 13 kt METAR LESU 041400Z 20013KT 9999 FEW060 FEW070TCU 33/12 Q1018
3:30 pm
V
91 °F 6¼ mi+ - 210° 210° 11 kt METAR LESU 041330Z 21011KT 9999 FEW060 FEW070TCU 33/12 Q1018
3:00 pm
V
90 °F 6¼ mi+ - 210° 210° 10 kt METAR LESU 041300Z 21010KT 180V260 9999 FEW060 FEW070TCU 32/12 Q1019
2:30 pm
V
90 °F 6¼ mi+ - 200° 200° 9 kt METAR LESU 041230Z 20009KT 150V240 9999 FEW070 32/13 Q1019
2:00 pm
V
88 °F 6¼ mi+ - 210° 210° 9 kt METAR LESU 041200Z 21009KT 9999 FEW060 31/13 Q1019
1:30 pm
V
84 °F 6¼ mi+ - 210° 210° 6 kt METAR LESU 041130Z 21006KT 180V280 9999 FEW060 29/13 Q1020
1:00 pm
V
81 °F 6¼ mi+ - 220° 220° 4 kt METAR LESU 041100Z 22004KT 150V270 9999 FEW070 27/14 Q1020
12:30 pm
V
79 °F 6¼ mi+ - Var Var 2 kt METAR LESU 041030Z VRB02KT 9999 FEW070 26/15 Q1021
12:00 pm
V
73 °F 6¼ mi+ - 150° 150° 3 kt METAR LESU 041000Z 15003KT 070V210 9999 FEW070 23/15 Q1021
11:30 am
V
72 °F 6¼ mi+ - Var Var 3 kt METAR LESU 040930Z VRB03KT 9999 FEW070 22/15 Q1021
11:00 am
V
68 °F 6¼ mi+ - 160° 160° 3 kt METAR LESU 040900Z 16003KT 090V220 9999 FEW060 20/15 Q1021

July 3, 2022

Time Code Weather Temp. Visibility Ceiling Wind METAR/SPECI
7:30 pm
V
90 °F 6¼ mi+ - 030° 030° 3 kt METAR LESU 031730Z 03003KT 340V080 9999 FEW070 FEW080TCU 32/09 Q1018
7:00 pm
V
91 °F 6¼ mi+ - Var Var 2 kt METAR LESU 031700Z VRB02KT 9999 FEW070 FEW080TCU 33/10 Q1018
6:30 pm
V
91 °F 6¼ mi+ - 200° 200° 7 kt METAR LESU 031630Z 20007KT 160V260 9999 FEW070 FEW080TCU 33/11 Q1019
6:00 pm
V
90 °F 6¼ mi+ - 210° 210° 8 kt METAR LESU 031600Z 21008KT 160V270 9999 FEW070 SCT080TCU 32/08 Q1019
5:30 pm
V
91 °F 6¼ mi+ - 240° 240° 8 kt METAR LESU 031530Z 24008KT 200V290 9999 FEW060 FEW070TCU 33/09 Q1020
5:00 pm
V
91 °F 6¼ mi+ - 240° 240° 11 - 26 kt METAR LESU 031500Z 24011G26KT 200V290 9999 FEW060 FEW070TCU 33/08 Q1020
4:30 pm
V
93 °F 6¼ mi+ - 200° 200° 10 kt METAR LESU 031430Z 20010KT 170V240 9999 FEW060 FEW070TCU 34/09 Q1020
4:00 pm
V
95 °F 6¼ mi+ - 190° 190° 11 kt METAR LESU 031400Z 19011KT 160V220 9999 FEW070 35/08 Q1020
3:30 pm
V
97 °F 6¼ mi+ - 210° 210° 8 kt METAR LESU 031330Z 21008KT 180V260 9999 FEW070 36/10 Q1020
3:00 pm
V
95 °F 6¼ mi+ - 200° 200° 10 kt METAR LESU 031300Z 20010KT 170V240 9999 FEW070 35/10 Q1020
2:30 pm
V
95 °F 6¼ mi+ - 210° 210° 9 kt METAR LESU 031230Z 21009KT 160V250 9999 FEW070 35/10 Q1020
2:00 pm
V
91 °F 6¼ mi+ - 190° 190° 10 kt METAR LESU 031200Z 19010KT 150V220 9999 FEW070 33/10 Q1020
1:30 pm
V
93 °F 6¼ mi+ - 200° 200° 11 kt METAR LESU 031130Z 20011KT 160V260 9999 FEW070 34/11 Q1020
1:00 pm
V
91 °F 6¼ mi+ - 210° 210° 9 kt METAR LESU 031100Z 21009KT 180V260 9999 FEW060 33/11 Q1021
12:30 pm
V
88 °F 6¼ mi+ - 220° 220° 8 kt METAR LESU 031030Z 22008KT 190V260 9999 FEW060 31/11 Q1021
12:00 pm
V
82 °F 6¼ mi+ - 220° 220° 4 kt METAR LESU 031000Z 22004KT 170V330 CAVOK 28/11 Q1021
11:30 am
V
79 °F 6¼ mi+ - 190° 190° 3 kt METAR LESU 030930Z 19003KT 120V240 CAVOK 26/11 Q1021
11:00 am
V
77 °F 6¼ mi+ - Var Var 2 kt METAR LESU 030900Z VRB02KT CAVOK 25/12 Q1021
10:30 am
V
73 °F 6¼ mi+ - Var Var 2 kt METAR LESU 030830Z VRB02KT CAVOK 23/12 Q1022
10:00 am
V
72 °F 6¼ mi+ - Var Var 1 kt METAR LESU 030800Z VRB01KT CAVOK 22/13 Q1022
9:30 am
V
70 °F 6¼ mi+ - Var Var 1 kt METAR LESU 030730Z VRB01KT CAVOK 21/12 Q1022
9:00 am
V
66 °F 6¼ mi+ - 070° 070° 3 kt METAR LESU 030700Z 07003KT CAVOK 19/12 Q1022
8:30 am
V
66 °F 6¼ mi+ - 050° 050° 3 kt METAR LESU 030630Z 05003KT 360V100 CAVOK 19/12 Q1023
8:00 am
V
64 °F 6¼ mi+ - 350° 350° 3 kt METAR LESU 030600Z 35003KT CAVOK 18/12 Q1023
7:30 am
V
63 °F 6¼ mi+ - Var 000° 0 kt METAR LESU 030530Z 00000KT CAVOK 17/12 Q1022

July 2, 2022

Time Code Weather Temp. Visibility Ceiling Wind METAR/SPECI
5:30 pm
V
91 °F 6¼ mi+ - 210° 210° 12 kt METAR LESU 021530Z 21012KT 9999 FEW080 33/08 Q1019
5:00 pm
V
91 °F 6¼ mi+ - 210° 210° 12 kt METAR LESU 021500Z 21012KT 190V250 9999 FEW080 33/08 Q1019
Older data

Download our app

Easy access to all aviation weather on your mobile phone and tablet.
With many features not available on the website, like offline support and a personal airport list.

We and third parties follow your internet behavior on our website with cookies. If you continue, we assume you agree with our cookie policy. Learn more